createdAt,value
2023-03-06T00:02:10.128Z,98112.50
2023-03-06T00:04:37.185Z,98119.44
2023-03-06T00:07:04.204Z,98124.69
2023-03-06T00:09:31.221Z,98134.19
2023-03-06T00:11:58.328Z,98128.19
2023-03-06T00:14:25.381Z,98132.44
2023-03-06T00:16:58.337Z,98117.75
2023-03-06T00:19:25.482Z,98116.78
2023-03-06T00:21:52.498Z,98139.91
2023-03-06T00:24:19.503Z,98130.34
2023-03-06T00:26:46.566Z,98130.34
2023-03-06T00:29:13.666Z,98081.28
2023-03-06T00:31:40.796Z,98112.56
2023-03-06T00:34:07.821Z,98135.88
2023-03-06T00:36:34.832Z,98109.22
2023-03-06T00:39:01.837Z,98119.81
2023-03-06T00:41:28.805Z,98120.84
2023-03-06T00:43:58.114Z,98123.41
2023-03-06T00:46:25.149Z,98116.41
2023-03-06T00:48:52.136Z,98122.53
2023-03-06T00:51:21.894Z,98111.16
2023-03-06T00:53:48.889Z,98126.34
2023-03-06T00:56:17.068Z,98128.13
2023-03-06T00:58:44.885Z,98136.56
2023-03-06T01:01:11.944Z,98133.91
2023-03-06T01:03:38.962Z,98135.63
2023-03-06T01:06:06.242Z,98117.38
2023-03-06T01:08:35.634Z,98139.72
2023-03-06T01:11:02.734Z,98143.09
2023-03-06T01:13:29.791Z,98122.31
2023-03-06T01:16:09.763Z,98142.31
2023-03-06T01:18:37.370Z,98126.56
2023-03-06T01:21:05.396Z,98144.75
2023-03-06T01:23:32.753Z,98115.47
2023-03-06T01:26:00.090Z,98125.91
2023-03-06T01:28:27.633Z,98142.16
2023-03-06T01:30:56.135Z,98143.13
2023-03-06T01:33:23.168Z,98140.69
2023-03-06T01:35:50.244Z,98140.69
2023-03-06T01:38:17.307Z,98130.31
2023-03-06T01:40:44.463Z,98133.97
2023-03-06T01:43:26.912Z,98131.56
2023-03-06T01:46:25.415Z,98135.06
2023-03-06T01:49:00.891Z,98141.94
2023-03-06T01:51:33.587Z,98101.81
2023-03-06T01:54:07.793Z,98141.53
2023-03-06T01:56:35.693Z,98121.44
2023-03-06T01:59:03.315Z,98143.06
2023-03-06T02:01:32.248Z,98136.06
2023-03-06T02:04:00.973Z,98144.72
2023-03-06T02:06:29.695Z,98143.06
2023-03-06T02:08:57.171Z,98152.25
2023-03-06T02:11:25.272Z,98146.06
2023-03-06T02:13:54.800Z,98147.00
2023-03-06T02:16:26.733Z,98152.88
2023-03-06T02:18:54.102Z,98143.56
2023-03-06T02:21:27.088Z,98148.81
2023-03-06T02:23:54.033Z,98142.97
2023-03-06T02:26:22.334Z,98094.41
2023-03-06T02:28:49.419Z,98131.63
2023-03-06T02:31:24.839Z,98145.50
2023-03-06T02:34:14.290Z,98156.72
2023-03-06T02:36:45.693Z,98140.19
2023-03-06T02:39:14.752Z,98147.09
2023-03-06T02:41:41.816Z,98147.09
2023-03-06T02:44:08.870Z,98151.41
2023-03-06T02:46:36.263Z,98150.63
2023-03-06T02:49:03.286Z,98152.47
2023-03-06T02:51:30.317Z,98144.81
2023-03-06T02:53:57.368Z,98113.44
2023-03-06T02:56:24.436Z,98147.56
2023-03-06T02:58:52.253Z,98143.97
2023-03-06T03:01:20.318Z,98132.47
2023-03-06T03:03:47.367Z,98153.81
2023-03-06T03:06:15.609Z,98153.47
2023-03-06T03:08:43.844Z,98144.13
2023-03-06T03:11:12.516Z,98122.53
2023-03-06T03:13:43.182Z,98161.19
2023-03-06T03:16:18.176Z,98151.97
2023-03-06T03:18:48.053Z,98133.78
2023-03-06T03:21:17.930Z,98141.50
2023-03-06T03:23:47.051Z,98153.56
2023-03-06T03:26:20.248Z,98152.72
2023-03-06T03:28:54.010Z,98137.91
2023-03-06T03:31:22.227Z,98152.63
2023-03-06T03:33:50.204Z,98152.53
2023-03-06T03:36:18.959Z,98157.50
2023-03-06T03:38:47.621Z,98157.63
2023-03-06T03:41:14.848Z,98125.53
2023-03-06T03:43:43.284Z,98166.28
2023-03-06T03:46:11.094Z,98145.50
2023-03-06T03:48:38.695Z,98150.72
2023-03-06T03:51:16.760Z,98148.75
2023-03-06T03:53:48.175Z,98156.56
2023-03-06T03:56:19.509Z,98162.63
2023-03-06T03:58:54.897Z,98160.09
2023-03-06T04:01:22.812Z,98144.34
2023-03-06T04:03:49.852Z,98159.94
2023-03-06T04:06:18.149Z,98140.97
2023-03-06T04:08:45.988Z,98167.63
2023-03-06T04:11:14.014Z,98139.88
2023-03-06T04:13:41.837Z,98166.78
2023-03-06T04:16:09.270Z,98168.56
2023-03-06T04:18:38.313Z,98171.22
2023-03-06T04:21:06.507Z,98155.03
2023-03-06T04:23:34.180Z,98161.13
2023-03-06T04:26:02.139Z,98170.31
2023-03-06T04:28:29.241Z,98141.59
2023-03-06T04:30:57.378Z,98156.38
2023-03-06T04:33:24.631Z,98163.47
2023-03-06T04:35:51.780Z,98160.09
2023-03-06T04:38:24.100Z,98166.88
2023-03-06T04:40:51.334Z,98161.13
2023-03-06T04:43:18.436Z,98171.41
2023-03-06T04:45:45.562Z,98169.94
2023-03-06T04:48:14.937Z,98172.66
2023-03-06T04:50:42.458Z,98172.91
2023-03-06T04:53:11.092Z,98161.94
2023-03-06T04:55:38.449Z,98164.69
2023-03-06T04:58:05.695Z,98161.44
2023-03-06T05:00:32.828Z,98161.28
2023-03-06T05:03:01.331Z,98163.84
2023-03-06T05:05:29.357Z,98174.13
2023-03-06T05:07:56.538Z,98161.81
2023-03-06T05:10:24.025Z,98173.22
2023-03-06T05:12:51.266Z,98176.53
2023-03-06T05:15:18.785Z,98159.19
2023-03-06T05:17:47.602Z,98170.63
2023-03-06T05:20:15.726Z,98174.97
2023-03-06T05:22:44.785Z,98168.00
2023-03-06T05:25:12.232Z,98168.09
2023-03-06T05:27:40.102Z,98129.22
2023-03-06T05:30:08.897Z,98189.63
2023-03-06T05:32:36.131Z,98182.97
2023-03-06T05:35:04.882Z,98186.41
2023-03-06T05:37:32.356Z,98167.28
2023-03-06T05:40:00.499Z,98184.75
2023-03-06T05:42:28.851Z,98188.19
2023-03-06T05:44:55.905Z,98185.69
2023-03-06T05:47:22.883Z,98189.78
2023-03-06T05:49:50.056Z,98187.28
2023-03-06T05:52:17.728Z,98186.66
2023-03-06T05:54:44.799Z,98191.22
2023-03-06T05:57:11.886Z,98196.50
2023-03-06T05:59:38.875Z,98193.41
2023-03-06T06:02:06.147Z,98193.59
2023-03-06T06:04:33.213Z,98199.66
2023-03-06T06:07:01.194Z,98184.06
2023-03-06T06:09:29.351Z,98171.72
2023-03-06T06:11:59.580Z,98203.50
2023-03-06T06:14:26.771Z,98207.00
2023-03-06T06:16:54.350Z,98202.56
2023-03-06T06:19:22.618Z,98205.28
2023-03-06T06:21:52.101Z,98193.03
2023-03-06T06:24:21.855Z,98201.81
2023-03-06T06:26:53.848Z,98199.47
2023-03-06T06:29:21.725Z,98198.72
2023-03-06T06:31:49.423Z,98177.41
2023-03-06T06:34:17.171Z,98185.50
2023-03-06T06:36:44.279Z,98193.56
2023-03-06T06:39:14.312Z,98183.16
2023-03-06T06:41:59.307Z,98201.63
2023-03-06T06:44:28.445Z,98188.63
2023-03-06T06:49:42.440Z,98198.44
2023-03-06T06:52:10.883Z,98147.69
2023-03-06T06:54:37.999Z,98212.72
2023-03-06T06:57:05.200Z,98208.44
2023-03-06T06:59:32.191Z,98220.66
2023-03-06T07:02:01.522Z,98217.88
2023-03-06T07:04:28.547Z,98212.00
2023-03-06T07:06:56.836Z,98209.28
2023-03-06T07:09:24.124Z,98222.94
2023-03-06T07:11:51.426Z,98202.06
2023-03-06T07:14:18.609Z,98206.25
2023-03-06T07:16:45.589Z,98214.91
2023-03-06T07:19:12.593Z,98213.72
2023-03-06T07:21:39.580Z,98218.38
2023-03-06T07:24:06.843Z,98208.06
2023-03-06T07:26:34.881Z,98214.09
2023-03-06T07:29:03.760Z,98214.34
2023-03-06T07:31:31.118Z,98224.75
2023-03-06T07:33:58.162Z,98218.97
2023-03-06T07:36:25.227Z,98218.13
2023-03-06T07:38:52.290Z,98225.75
2023-03-06T07:41:22.194Z,98221.41
2023-03-06T07:43:50.357Z,98213.66
2023-03-06T07:46:18.066Z,98222.28
2023-03-06T07:48:45.166Z,98229.13
2023-03-06T07:51:21.422Z,98226.66
2023-03-06T07:53:49.664Z,98217.81
2023-03-06T07:56:17.021Z,98188.50
2023-03-06T07:58:46.663Z,98225.75
2023-03-06T08:01:17.121Z,98219.72
2023-03-06T08:03:44.863Z,98216.59
2023-03-06T08:06:18.124Z,98232.47
2023-03-06T08:08:47.305Z,98245.41
2023-03-06T08:11:17.209Z,98232.03
2023-03-06T08:13:45.223Z,98238.34
2023-03-06T08:16:12.340Z,98241.22
2023-03-06T08:18:44.373Z,98246.63
2023-03-06T08:21:18.799Z,98235.69
2023-03-06T08:23:46.546Z,98238.38
2023-03-06T08:26:25.486Z,98244.28
2023-03-06T08:28:54.371Z,98217.56
2023-03-06T08:31:38.831Z,98235.47
2023-03-06T08:34:09.113Z,98244.75
2023-03-06T08:36:36.785Z,98246.13
2023-03-06T08:39:05.017Z,98244.13
2023-03-06T08:41:32.823Z,98243.84
2023-03-06T08:43:59.853Z,98242.00
2023-03-06T08:46:28.943Z,98244.19
2023-03-06T08:48:56.877Z,98254.50
2023-03-06T08:51:24.311Z,98252.88
2023-03-06T08:53:52.001Z,98221.91
2023-03-06T08:56:21.987Z,98249.50
2023-03-06T08:58:49.317Z,98254.56
2023-03-06T09:01:28.345Z,98257.03
2023-03-06T09:03:58.094Z,98265.59
2023-03-06T09:06:26.373Z,98249.19
2023-03-06T09:08:54.677Z,98224.38
2023-03-06T09:11:23.510Z,98268.56
2023-03-06T09:13:50.697Z,98264.38
2023-03-06T09:16:18.012Z,98246.41
2023-03-06T09:18:45.154Z,98266.38
2023-03-06T09:21:12.316Z,98238.84
2023-03-06T09:23:39.836Z,98234.41
2023-03-06T09:26:08.562Z,98242.03
2023-03-06T09:28:39.086Z,98261.97
2023-03-06T09:31:15.929Z,98208.41
2023-03-06T09:33:43.457Z,98264.66
2023-03-06T09:36:23.722Z,98257.66
2023-03-06T09:38:50.944Z,98242.19
2023-03-06T09:41:35.818Z,98264.59
2023-03-06T09:44:15.696Z,98263.88
2023-03-06T09:46:55.179Z,98270.06
2023-03-06T09:49:36.204Z,98282.03
2023-03-06T09:52:24.821Z,98282.78
2023-03-06T09:55:03.556Z,98267.50
2023-03-06T09:57:36.821Z,98276.91
2023-03-06T10:00:30.825Z,98283.88
2023-03-06T10:03:17.971Z,98281.22
2023-03-06T10:05:51.029Z,98282.03
2023-03-06T10:08:24.384Z,98264.84
2023-03-06T10:10:59.786Z,98281.56
2023-03-06T10:13:34.445Z,98276.41
2023-03-06T10:16:31.687Z,98285.06
2023-03-06T10:19:03.427Z,98274.50
2023-03-06T10:21:57.622Z,98278.59
2023-03-06T10:24:53.676Z,98282.72
2023-03-06T10:27:29.827Z,98285.94
2023-03-06T10:30:20.054Z,98279.88
2023-03-06T10:32:58.851Z,98285.88
2023-03-06T10:35:33.103Z,98279.06
2023-03-06T10:38:22.110Z,98274.28
2023-03-06T10:41:12.971Z,98268.41
2023-03-06T10:43:41.131Z,98257.09
2023-03-06T10:46:10.209Z,98273.47
2023-03-06T10:48:40.894Z,98260.41
2023-03-06T10:51:21.233Z,98270.75
2023-03-06T10:53:58.901Z,98261.22
2023-03-06T10:56:47.022Z,98282.84
2023-03-06T10:59:28.470Z,98285.34
2023-03-06T11:01:58.536Z,98283.34
2023-03-06T11:04:36.741Z,98245.88
2023-03-06T11:07:17.459Z,98298.81
2023-03-06T11:10:25.129Z,98312.91
2023-03-06T11:13:03.052Z,98312.31
2023-03-06T11:15:30.548Z,98308.16
2023-03-06T11:18:09.782Z,98309.25
2023-03-06T11:20:51.375Z,98311.13
2023-03-06T11:23:32.549Z,98306.44
2023-03-06T11:26:17.989Z,98316.00
2023-03-06T11:29:14.718Z,98314.25
2023-03-06T11:32:14.849Z,98318.59
2023-03-06T11:35:03.602Z,98312.75
2023-03-06T11:38:00.290Z,98317.28
2023-03-06T11:40:27.285Z,98314.00
2023-03-06T11:43:09.978Z,98308.88
2023-03-06T11:45:45.317Z,98316.88
2023-03-06T11:48:15.018Z,98307.56
2023-03-06T11:50:48.186Z,98308.66
2023-03-06T11:53:37.568Z,98312.34
2023-03-06T11:56:19.818Z,98311.91
2023-03-06T11:58:49.708Z,98311.78
2023-03-06T12:01:50.462Z,98314.09
2023-03-06T12:04:55.011Z,98312.97
2023-03-06T12:07:29.204Z,98304.69
2023-03-06T12:10:23.797Z,98317.16
2023-03-06T12:16:33.635Z,98315.47
2023-03-06T12:19:22.048Z,98303.06
2023-03-06T12:22:26.102Z,98324.31
2023-03-06T12:25:02.386Z,98318.91
2023-03-06T12:27:58.761Z,98316.38
2023-03-06T12:30:25.729Z,98320.88
2023-03-06T12:32:55.043Z,98316.59
2023-03-06T12:35:30.954Z,98325.44
2023-03-06T12:38:22.114Z,98292.91
2023-03-06T12:41:11.915Z,98309.84
2023-03-06T12:44:04.712Z,98322.88
2023-03-06T12:46:38.781Z,98332.16
2023-03-06T12:49:31.152Z,98324.22
2023-03-06T12:52:00.205Z,98316.66
2023-03-06T12:54:33.695Z,98318.22
2023-03-06T12:57:01.336Z,98294.09
2023-03-06T12:59:36.120Z,98301.97
2023-03-06T13:02:11.846Z,98314.03
2023-03-06T13:05:01.958Z,98315.84
2023-03-06T13:07:55.772Z,98325.09
2023-03-06T13:10:27.567Z,98319.91
2023-03-06T13:13:24.809Z,98325.81
2023-03-06T13:16:03.810Z,98305.72
2023-03-06T13:18:49.251Z,98331.25
2023-03-06T13:22:07.300Z,98336.13
2023-03-06T13:24:37.676Z,98316.22
2023-03-06T13:27:12.306Z,98332.72
2023-03-06T13:29:39.230Z,98328.41
2023-03-06T13:32:16.558Z,98337.78
2023-03-06T13:34:48.685Z,98323.66
2023-03-06T13:37:18.781Z,98319.44
2023-03-06T13:40:06.776Z,98338.31
2023-03-06T13:42:56.521Z,98351.19
2023-03-06T13:45:48.376Z,98344.34
2023-03-06T13:48:47.641Z,98339.75
2023-03-06T13:51:26.514Z,98360.34
2023-03-06T13:54:48.527Z,98351.56
2023-03-06T13:57:33.930Z,98356.88
2023-03-06T14:00:20.917Z,98360.78
2023-03-06T14:02:58.897Z,98366.50
2023-03-06T14:05:41.214Z,98363.91
2023-03-06T14:08:10.976Z,98356.94
2023-03-06T14:10:39.072Z,98362.13
2023-03-06T14:13:14.332Z,98363.69
2023-03-06T14:15:44.944Z,98357.78
2023-03-06T14:18:19.706Z,98363.06
2023-03-06T14:20:51.662Z,98354.78
2023-03-06T14:23:24.005Z,98377.19
2023-03-06T14:26:00.061Z,98368.34
2023-03-06T14:28:29.776Z,98385.53
2023-03-06T14:31:00.195Z,98368.00
2023-03-06T14:34:05.235Z,98386.78
2023-03-06T14:36:35.587Z,98372.78
2023-03-06T14:39:24.284Z,98393.31
2023-03-06T14:41:51.379Z,98385.34
2023-03-06T14:44:22.943Z,98388.47
2023-03-06T14:46:55.403Z,98398.69
2023-03-06T14:49:24.595Z,98412.06
2023-03-06T14:51:55.103Z,98409.41
2023-03-06T14:54:31.686Z,98386.97
2023-03-06T14:57:06.201Z,98404.13
2023-03-06T14:59:43.712Z,98408.19
2023-03-06T15:02:18.092Z,98421.69
2023-03-06T15:04:49.381Z,98416.56
2023-03-06T15:07:23.874Z,98399.78
2023-03-06T15:09:53.393Z,98426.47
2023-03-06T15:12:20.322Z,98422.16
2023-03-06T15:15:03.790Z,98407.63
2023-03-06T15:17:42.023Z,98417.81
2023-03-06T15:20:43.679Z,98436.66
2023-03-06T15:23:35.816Z,98433.84
2023-03-06T15:26:37.113Z,98434.72
2023-03-06T15:29:10.808Z,98436.16
2023-03-06T15:31:43.532Z,98442.97
2023-03-06T15:34:10.681Z,98450.50
2023-03-06T15:36:41.125Z,98452.84
2023-03-06T15:39:26.811Z,98451.34
2023-03-06T15:41:58.695Z,98451.91
2023-03-06T15:44:26.004Z,98451.91
2023-03-06T15:47:07.824Z,98468.25
2023-03-06T15:49:38.302Z,98478.38
2023-03-06T15:52:09.201Z,98479.47
2023-03-06T15:54:36.932Z,98480.19
2023-03-06T15:57:14.004Z,98492.06
2023-03-06T15:59:43.006Z,98487.91
2023-03-06T16:02:18.477Z,98487.97
2023-03-06T16:04:46.240Z,98493.75
2023-03-06T16:07:13.946Z,98495.06
2023-03-06T16:09:42.375Z,98495.44
2023-03-06T16:12:18.408Z,98522.78
2023-03-06T16:14:47.758Z,98519.19
2023-03-06T16:17:17.376Z,98481.06
2023-03-06T16:19:44.732Z,98515.44
2023-03-06T16:22:11.845Z,98510.97
2023-03-06T16:24:38.922Z,98512.25
2023-03-06T16:27:07.138Z,98524.28
2023-03-06T16:29:35.296Z,98520.91
2023-03-06T16:32:02.892Z,98506.78
2023-03-06T16:34:29.958Z,98526.81
2023-03-06T16:36:56.959Z,98534.16
2023-03-06T16:39:24.668Z,98534.06
2023-03-06T16:41:52.265Z,98516.31
2023-03-06T16:44:20.931Z,98538.53
2023-03-06T16:46:50.112Z,98537.63
2023-03-06T16:49:24.703Z,98540.03
2023-03-06T16:51:52.906Z,98546.88
2023-03-06T16:54:21.948Z,98525.25
2023-03-06T16:56:49.011Z,98544.31
2023-03-06T16:59:16.115Z,98543.72
2023-03-06T17:01:43.443Z,98535.16
2023-03-06T17:04:11.015Z,98546.53
2023-03-06T17:06:38.262Z,98549.84
2023-03-06T17:09:05.466Z,98554.75
2023-03-06T17:11:32.555Z,98562.50
2023-03-06T17:13:59.741Z,98560.75
2023-03-06T17:16:26.763Z,98563.38
2023-03-06T17:18:55.107Z,98561.63
2023-03-06T17:21:22.215Z,98532.81
2023-03-06T17:23:50.977Z,98571.72
2023-03-06T17:26:19.404Z,98569.13
2023-03-06T17:28:47.213Z,98570.63
2023-03-06T17:31:22.682Z,98567.63
2023-03-06T17:33:51.620Z,98565.66
2023-03-06T17:36:19.579Z,98572.47
2023-03-06T17:38:47.217Z,98572.44
2023-03-06T17:41:14.586Z,98591.63
2023-03-06T17:43:41.923Z,98590.72
2023-03-06T17:46:11.245Z,98603.56
2023-03-06T17:48:38.855Z,98611.97
2023-03-06T17:51:07.598Z,98604.88
2023-03-06T17:53:34.713Z,98589.97
2023-03-06T17:56:06.829Z,98606.38
2023-03-06T17:58:34.152Z,98609.84
2023-03-06T18:01:09.664Z,98573.00
2023-03-06T18:03:38.552Z,98611.22
2023-03-06T18:06:09.517Z,98611.78
2023-03-06T18:08:37.819Z,98609.16
2023-03-06T18:11:07.300Z,98596.06
2023-03-06T18:13:36.752Z,98615.13
2023-03-06T18:16:06.067Z,98590.63
2023-03-06T18:18:33.539Z,98600.91
2023-03-06T18:21:09.378Z,98609.16
2023-03-06T18:23:37.597Z,98623.94
2023-03-06T18:26:11.911Z,98624.69
2023-03-06T18:28:42.771Z,98600.34
2023-03-06T18:31:28.160Z,98630.03
2023-03-06T18:33:57.673Z,98628.09
2023-03-06T18:36:26.766Z,98630.50
2023-03-06T18:38:53.998Z,98632.88
2023-03-06T18:41:22.135Z,98610.13
2023-03-06T18:43:53.769Z,98606.66
2023-03-06T18:46:21.779Z,98638.84
2023-03-06T18:48:50.361Z,98624.19
2023-03-06T18:51:19.494Z,98631.16
2023-03-06T18:53:46.648Z,98638.91
2023-03-06T18:56:19.194Z,98633.59
2023-03-06T18:58:46.777Z,98631.00
2023-03-06T19:01:14.529Z,98642.94
2023-03-06T19:03:41.608Z,98644.16
2023-03-06T19:06:11.741Z,98647.69
2023-03-06T19:08:39.959Z,98624.00
2023-03-06T19:11:10.010Z,98646.63
2023-03-06T19:13:37.632Z,98590.00
2023-03-06T19:16:05.582Z,98641.41
2023-03-06T19:18:32.770Z,98648.44
2023-03-06T19:21:23.481Z,98653.59
2023-03-06T19:23:50.549Z,98650.03
2023-03-06T19:26:21.529Z,98660.22
2023-03-06T19:28:49.483Z,98656.16
2023-03-06T19:31:20.263Z,98641.41
2023-03-06T19:33:48.968Z,98662.03
2023-03-06T19:36:17.337Z,98638.94
2023-03-06T19:38:44.413Z,98657.94
2023-03-06T19:41:13.807Z,98651.81
2023-03-06T19:43:42.458Z,98656.94
2023-03-06T19:46:15.658Z,98653.88
2023-03-06T19:48:42.773Z,98663.28
2023-03-06T19:51:10.395Z,98666.03
2023-03-06T19:53:39.722Z,98660.19
2023-03-06T19:56:13.560Z,98660.47
2023-03-06T19:58:40.891Z,98666.63
2023-03-06T20:01:13.528Z,98676.00
2023-03-06T20:03:41.222Z,98669.84
2023-03-06T20:06:13.323Z,98669.53
2023-03-06T20:08:40.379Z,98649.63
2023-03-06T20:11:07.396Z,98668.91
2023-03-06T20:13:34.411Z,98677.47
2023-03-06T20:16:04.485Z,98672.94
2023-03-06T20:18:31.568Z,98648.78
2023-03-06T20:21:03.652Z,98676.00
2023-03-06T20:23:31.771Z,98588.84
2023-03-06T20:26:07.299Z,98674.28
2023-03-06T20:28:35.205Z,98663.81
2023-03-06T20:31:13.665Z,98669.19
2023-03-06T20:33:40.660Z,98615.09
2023-03-06T20:36:32.322Z,98665.16
2023-03-06T20:39:00.834Z,98658.53
2023-03-06T20:41:29.285Z,98662.41
2023-03-06T20:43:58.705Z,98675.47
2023-03-06T20:46:26.363Z,98662.47
2023-03-06T20:48:54.438Z,98640.97
2023-03-06T20:51:23.887Z,98683.09
2023-03-06T20:53:55.536Z,98676.53
2023-03-06T20:56:25.757Z,98676.63
2023-03-06T20:58:53.529Z,98676.78
2023-03-06T21:01:22.507Z,98670.88
2023-03-06T21:03:49.900Z,98671.81
2023-03-06T21:06:17.757Z,98670.88
2023-03-06T21:08:44.801Z,98655.53
2023-03-06T21:11:12.182Z,98673.06
2023-03-06T21:13:39.478Z,98664.19
2023-03-06T21:16:09.965Z,98679.88
2023-03-06T21:18:37.368Z,98673.78
2023-03-06T21:21:16.865Z,98677.41
2023-03-06T21:23:43.905Z,98675.50
2023-03-06T21:26:13.122Z,98679.63
2023-03-06T21:28:40.159Z,98673.34
2023-03-06T21:31:12.395Z,98669.13
2023-03-06T21:33:39.835Z,98625.66
2023-03-06T21:36:07.529Z,98676.22
2023-03-06T21:38:35.113Z,98623.00
2023-03-06T21:41:09.446Z,98690.69
2023-03-06T21:43:36.485Z,98690.94
2023-03-06T21:46:03.915Z,98672.66
2023-03-06T21:48:31.221Z,98692.75
2023-03-06T21:51:19.251Z,98671.28
2023-03-06T21:53:48.347Z,98693.75
2023-03-06T21:56:17.790Z,98694.72
2023-03-06T21:58:45.727Z,98687.63
2023-03-06T22:01:17.080Z,98685.09
2023-03-06T22:03:44.116Z,98688.56
2023-03-06T22:06:24.145Z,98691.66
2023-03-06T22:08:51.445Z,98690.00
2023-03-06T22:11:20.542Z,98689.22
2023-03-06T22:13:48.491Z,98696.09
2023-03-06T22:16:16.564Z,98688.44
2023-03-06T22:18:48.921Z,98696.75
2023-03-06T22:21:18.290Z,98685.91
2023-03-06T22:23:50.202Z,98690.25
2023-03-06T22:26:17.272Z,98679.06
2023-03-06T22:28:44.378Z,98671.38
2023-03-06T22:31:17.734Z,98692.34
2023-03-06T22:33:45.382Z,98685.59
2023-03-06T22:36:16.260Z,98696.97
2023-03-06T22:38:45.132Z,98687.84
2023-03-06T22:41:14.194Z,98695.56
2023-03-06T22:43:41.784Z,98671.38
2023-03-06T22:46:11.429Z,98686.47
2023-03-06T22:48:38.547Z,98688.28
2023-03-06T22:51:10.549Z,98678.78
2023-03-06T22:53:38.430Z,98676.19
2023-03-06T22:56:07.933Z,98686.47
2023-03-06T22:58:37.434Z,98683.88
2023-03-06T23:01:06.163Z,98685.47
2023-03-06T23:03:33.467Z,98676.59
2023-03-06T23:06:00.461Z,98681.75
2023-03-06T23:08:27.454Z,98685.25
2023-03-06T23:10:54.364Z,98681.94
2023-03-06T23:13:40.456Z,98686.38
2023-03-06T23:16:26.500Z,98670.69
2023-03-06T23:19:12.457Z,98675.16
2023-03-06T23:21:58.249Z,98675.66
2023-03-06T23:24:43.967Z,98679.09
2023-03-06T23:27:11.547Z,98673.94
2023-03-06T23:29:38.521Z,98673.06
2023-03-06T23:32:05.932Z,98673.78
2023-03-06T23:34:32.920Z,98675.66
2023-03-06T23:37:00.000Z,98676.72
2023-03-06T23:39:27.334Z,98676.72
2023-03-06T23:41:54.350Z,98672.38
2023-03-06T23:44:21.406Z,98672.97
2023-03-06T23:46:48.475Z,98667.50
2023-03-06T23:49:15.428Z,98616.44
2023-03-06T23:51:42.459Z,98679.75
2023-03-06T23:54:10.451Z,98672.06
2023-03-06T23:56:37.691Z,98605.84
2023-03-06T23:59:04.729Z,98664.84
